Herndon, Virginia
Current Conditions -  °F | °C
As of 4:52 PM on Monday 20 Oct 2014 (Local Time) from KIAD Reporting Station
Broken Clouds Broken Clouds  
Wind Chill: 63°   Ceiling: 25000
Heat Index: 63°   Visibility: 10mi
Dew Point: 45°   Wind: 8mph
Humidity: 52%   Direction: 210°SSW
Pressure: 29.94"   Gusts: NA
Location:  38.97°N, 77.38°W
Report Text: KIAD 202052Z 21007KT 10SM SCT110 SCT180 BKN250 17/07 A2994 RMK AO2 SLP139 T01720072 56011
Loading
Personal Weather Stations






























Interactive Weather Map
Tropical Storm Tracking
New forecast layout! Learn more

10-Day Weather Forecast

Advertisements
Track Severe Weather on mobile